createdAt,value
2023-02-07T00:00:22.751Z,4.00
2023-02-07T00:02:50.162Z,3.00
2023-02-07T00:05:17.669Z,3.50
2023-02-07T00:07:45.711Z,3.40
2023-02-07T00:10:12.846Z,3.03
2023-02-07T00:12:40.157Z,3.40
2023-02-07T00:15:07.648Z,3.85
2023-02-07T00:17:35.226Z,3.45
2023-02-07T00:20:02.403Z,3.75
2023-02-07T00:22:29.636Z,4.72
2023-02-07T00:24:56.743Z,4.25
2023-02-07T00:27:24.021Z,4.18
2023-02-07T00:29:51.551Z,4.53
2023-02-07T00:32:18.727Z,3.88
2023-02-07T00:34:47.366Z,3.78
2023-02-07T00:37:14.722Z,4.18
2023-02-07T00:39:41.900Z,3.78
2023-02-07T00:42:09.100Z,3.17
2023-02-07T00:44:36.412Z,3.67
2023-02-07T00:47:03.529Z,3.90
2023-02-07T00:49:30.816Z,4.35
2023-02-07T00:51:58.020Z,2.58
2023-02-07T00:54:25.337Z,3.40
2023-02-07T00:56:52.503Z,4.85
2023-02-07T00:59:19.767Z,3.92
2023-02-07T01:01:46.991Z,4.10
2023-02-07T01:04:14.092Z,4.55
2023-02-07T01:06:41.401Z,3.60
2023-02-07T01:09:08.558Z,4.30
2023-02-07T01:11:36.014Z,4.47
2023-02-07T01:14:03.543Z,4.57
2023-02-07T01:16:32.720Z,4.70
2023-02-07T01:21:27.934Z,4.50
2023-02-07T01:23:56.689Z,3.92
2023-02-07T01:26:24.790Z,4.32
2023-02-07T01:28:51.969Z,3.60
2023-02-07T01:31:19.456Z,4.00
2023-02-07T01:33:46.662Z,4.10
2023-02-07T01:36:15.022Z,4.43
2023-02-07T01:38:43.036Z,4.03
2023-02-07T01:41:10.646Z,4.90
2023-02-07T01:43:53.538Z,4.00
2023-02-07T01:46:20.759Z,4.47
2023-02-07T01:48:48.152Z,4.25
2023-02-07T01:51:15.602Z,3.83
2023-02-07T01:53:42.940Z,4.63
2023-02-07T01:56:17.652Z,4.25
2023-02-07T01:58:53.444Z,3.60
2023-02-07T02:01:26.416Z,4.07
2023-02-07T02:03:55.674Z,4.57
2023-02-07T02:06:23.797Z,4.57
2023-02-07T02:08:52.603Z,3.65
2023-02-07T02:11:34.502Z,4.90
2023-02-07T02:14:04.397Z,4.13
2023-02-07T02:16:36.911Z,4.72
2023-02-07T02:19:23.317Z,4.10
2023-02-07T02:21:53.578Z,4.82
2023-02-07T02:24:32.658Z,4.22
2023-02-07T02:27:04.287Z,4.93
2023-02-07T02:29:34.575Z,4.53
2023-02-07T02:32:20.370Z,4.97
2023-02-07T02:34:48.256Z,4.50
2023-02-07T02:37:33.872Z,4.43
2023-02-07T02:40:05.572Z,5.45
2023-02-07T02:42:35.078Z,5.82
2023-02-07T02:45:21.723Z,5.07
2023-02-07T02:47:50.398Z,4.97
2023-02-07T02:50:23.258Z,5.72
2023-02-07T02:52:51.482Z,5.55
2023-02-07T02:55:23.059Z,5.05
2023-02-07T02:58:10.808Z,6.47
2023-02-07T03:03:19.438Z,5.80
2023-02-07T03:06:00.476Z,6.00
2023-02-07T03:08:47.913Z,6.20
2023-02-07T03:11:16.820Z,5.63
2023-02-07T03:13:55.967Z,5.75
2023-02-07T03:16:23.245Z,6.10
2023-02-07T03:19:05.536Z,5.13
2023-02-07T03:21:32.674Z,6.90
2023-02-07T03:24:01.665Z,6.68
2023-02-07T03:26:29.823Z,5.47
2023-02-07T03:28:57.757Z,4.85
2023-02-07T03:31:26.043Z,5.65
2023-02-07T03:33:55.423Z,5.50
2023-02-07T03:36:23.473Z,4.60
2023-02-07T03:38:50.641Z,5.40
2023-02-07T03:41:22.240Z,5.15
2023-02-07T03:43:50.428Z,5.07
2023-02-07T03:46:19.592Z,4.78
2023-02-07T03:51:14.132Z,4.25
2023-02-07T03:53:41.253Z,5.47
2023-02-07T03:56:08.404Z,5.47
2023-02-07T03:58:35.564Z,4.82
2023-02-07T04:01:02.748Z,4.50
2023-02-07T04:03:30.020Z,5.80
2023-02-07T04:05:57.274Z,5.25
2023-02-07T04:08:24.374Z,5.07
2023-02-07T04:11:01.573Z,5.13
2023-02-07T04:13:28.722Z,4.40
2023-02-07T04:15:56.808Z,5.55
2023-02-07T04:18:23.997Z,5.15
2023-02-07T04:20:51.213Z,5.10
2023-02-07T04:23:18.374Z,5.88
2023-02-07T04:25:45.534Z,5.35
2023-02-07T04:28:13.060Z,4.63
2023-02-07T04:30:40.205Z,4.95
2023-02-07T04:33:07.358Z,4.78
2023-02-07T04:35:34.661Z,6.25
2023-02-07T04:38:01.802Z,5.10
2023-02-07T04:40:29.134Z,4.97
2023-02-07T04:42:56.302Z,5.20
2023-02-07T04:45:23.449Z,5.07
2023-02-07T04:47:50.793Z,5.18
2023-02-07T04:50:18.462Z,5.07
2023-02-07T04:52:45.788Z,6.03
2023-02-07T04:55:12.934Z,4.35
2023-02-07T04:57:40.068Z,4.60
2023-02-07T05:00:07.562Z,4.75
2023-02-07T05:02:34.762Z,5.07
2023-02-07T05:05:02.151Z,6.00
2023-02-07T05:07:29.278Z,5.20
2023-02-07T05:09:56.398Z,5.82
2023-02-07T05:12:23.584Z,5.47
2023-02-07T05:14:50.746Z,4.13
2023-02-07T05:17:18.084Z,5.30
2023-02-07T05:19:45.259Z,5.70
2023-02-07T05:22:12.413Z,4.90
2023-02-07T05:24:39.546Z,3.60
2023-02-07T05:27:06.697Z,3.25
2023-02-07T05:29:33.845Z,5.68
2023-02-07T05:32:19.835Z,5.57
2023-02-07T05:34:47.092Z,5.75
2023-02-07T05:37:14.350Z,5.72
2023-02-07T05:39:41.758Z,6.68
2023-02-07T05:42:08.850Z,5.93
2023-02-07T05:44:36.015Z,6.68
2023-02-07T05:47:03.178Z,5.57
2023-02-07T05:49:30.386Z,6.57
2023-02-07T05:51:57.498Z,6.43
2023-02-07T05:54:24.706Z,6.28
2023-02-07T05:56:51.883Z,6.50
2023-02-07T05:59:19.087Z,6.47
2023-02-07T06:01:46.296Z,6.28
2023-02-07T06:04:13.445Z,7.35
2023-02-07T06:06:42.017Z,6.47
2023-02-07T06:09:10.254Z,6.50
2023-02-07T06:11:37.426Z,7.00
2023-02-07T06:14:04.662Z,6.95
2023-02-07T06:16:31.784Z,8.35
2023-02-07T06:18:59.103Z,7.70
2023-02-07T06:21:34.656Z,7.85
2023-02-07T06:24:09.326Z,8.02
2023-02-07T06:26:36.591Z,8.00
2023-02-07T06:29:03.732Z,7.78
2023-02-07T06:31:30.945Z,7.65
2023-02-07T06:33:58.124Z,7.72
2023-02-07T06:36:25.336Z,8.05
2023-02-07T06:38:55.678Z,8.88
2023-02-07T06:41:23.193Z,8.65
2023-02-07T06:43:50.423Z,8.00
2023-02-07T06:46:17.659Z,10.05
2023-02-07T06:48:45.031Z,8.55
2023-02-07T06:51:12.355Z,9.05
2023-02-07T06:53:39.492Z,7.95
2023-02-07T06:56:06.743Z,9.23
2023-02-07T06:58:34.179Z,9.27
2023-02-07T07:01:05.547Z,9.05
2023-02-07T07:03:32.838Z,9.30
2023-02-07T07:06:00.355Z,8.32
2023-02-07T07:08:27.718Z,9.07
2023-02-07T07:10:55.214Z,8.57
2023-02-07T07:13:22.598Z,9.25
2023-02-07T07:15:50.015Z,9.07
2023-02-07T07:18:17.398Z,9.20
2023-02-07T07:20:44.541Z,9.60
2023-02-07T07:23:11.672Z,9.07
2023-02-07T07:25:39.150Z,9.38
2023-02-07T07:28:06.613Z,10.00
2023-02-07T07:30:33.931Z,9.05
2023-02-07T07:33:01.126Z,9.70
2023-02-07T07:35:28.879Z,9.23
2023-02-07T07:37:56.081Z,10.00
2023-02-07T07:40:23.365Z,11.38
2023-02-07T07:42:50.506Z,10.70
2023-02-07T07:45:17.636Z,10.30
2023-02-07T07:47:44.761Z,10.05
2023-02-07T07:50:12.145Z,10.43
2023-02-07T07:52:42.067Z,10.43
2023-02-07T07:55:09.614Z,10.82
2023-02-07T07:57:36.854Z,10.57
2023-02-07T08:00:04.755Z,10.73
2023-02-07T08:02:32.815Z,12.93
2023-02-07T08:05:00.390Z,11.05
2023-02-07T08:07:27.455Z,10.38
2023-02-07T08:09:54.671Z,11.40
2023-02-07T08:12:21.779Z,11.35
2023-02-07T08:14:49.091Z,10.48
2023-02-07T08:17:16.393Z,10.30
2023-02-07T08:19:43.566Z,12.20
2023-02-07T08:22:10.730Z,11.38
2023-02-07T08:24:37.905Z,11.52
2023-02-07T08:27:05.310Z,11.02
2023-02-07T08:29:32.601Z,9.73
2023-02-07T08:31:59.918Z,10.52
2023-02-07T08:34:28.795Z,10.88
2023-02-07T08:36:56.003Z,8.52
2023-02-07T08:39:23.202Z,9.02
2023-02-07T08:41:50.401Z,10.13
2023-02-07T08:44:17.529Z,10.85
2023-02-07T08:46:44.683Z,12.48
2023-02-07T08:49:11.935Z,10.90
2023-02-07T08:51:39.510Z,10.93
2023-02-07T08:54:06.919Z,10.30
2023-02-07T08:56:34.054Z,10.30
2023-02-07T08:59:01.322Z,11.38
2023-02-07T09:01:28.568Z,9.90
2023-02-07T09:03:56.782Z,9.27
2023-02-07T09:06:24.896Z,10.65
2023-02-07T09:08:52.133Z,9.88
2023-02-07T09:11:19.429Z,11.38
2023-02-07T09:13:46.621Z,10.85
2023-02-07T09:16:14.635Z,9.18
2023-02-07T09:18:42.253Z,10.80
2023-02-07T09:21:09.533Z,10.18
2023-02-07T09:23:37.118Z,9.07
2023-02-07T09:26:05.349Z,8.45
2023-02-07T09:28:32.552Z,8.25
2023-02-07T09:30:59.789Z,7.72
2023-02-07T09:33:27.064Z,7.50
2023-02-07T09:35:55.035Z,8.27
2023-02-07T09:38:25.853Z,8.27
2023-02-07T09:40:54.057Z,6.85
2023-02-07T09:43:29.357Z,7.57
2023-02-07T09:46:02.320Z,7.15
2023-02-07T09:48:48.256Z,7.30
2023-02-07T09:51:16.535Z,7.30
2023-02-07T09:53:46.744Z,7.30
2023-02-07T09:56:19.180Z,7.32
2023-02-07T09:58:52.709Z,7.80
2023-02-07T10:01:25.227Z,8.80
2023-02-07T10:03:56.904Z,7.30
2023-02-07T10:06:27.157Z,7.97
2023-02-07T10:08:56.858Z,8.93
2023-02-07T10:11:23.968Z,7.88
2023-02-07T10:13:51.156Z,8.18
2023-02-07T10:16:19.456Z,7.47
2023-02-07T10:18:49.317Z,8.77
2023-02-07T10:21:35.178Z,8.07
2023-02-07T10:24:21.213Z,8.50
2023-02-07T10:26:59.805Z,8.25
2023-02-07T10:29:29.941Z,8.15
2023-02-07T10:32:00.303Z,7.20
2023-02-07T10:34:36.157Z,7.10
2023-02-07T10:37:12.991Z,7.35
2023-02-07T10:39:42.642Z,7.97
2023-02-07T10:42:17.018Z,6.70
2023-02-07T10:44:44.673Z,6.63
2023-02-07T10:47:18.611Z,6.32
2023-02-07T10:49:48.613Z,7.32
2023-02-07T10:52:24.110Z,7.28
2023-02-07T10:54:55.410Z,5.72
2023-02-07T10:57:22.753Z,6.50
2023-02-07T10:59:50.763Z,6.97
2023-02-07T11:02:26.995Z,5.65
2023-02-07T11:04:54.340Z,5.30
2023-02-07T11:07:21.879Z,4.97
2023-02-07T11:09:49.672Z,4.13
2023-02-07T11:12:20.118Z,4.50
2023-02-07T11:15:04.827Z,4.70
2023-02-07T11:17:33.020Z,4.47
2023-02-07T11:20:04.294Z,5.10
2023-02-07T11:22:31.609Z,4.63
2023-02-07T11:25:06.349Z,4.60
2023-02-07T11:27:38.716Z,4.85
2023-02-07T11:30:10.112Z,5.03
2023-02-07T11:32:38.412Z,5.15
2023-02-07T11:35:09.388Z,4.68
2023-02-07T11:37:42.025Z,5.05
2023-02-07T11:40:27.875Z,4.28
2023-02-07T11:43:00.046Z,5.43
2023-02-07T11:45:28.557Z,5.30
2023-02-07T11:47:57.452Z,5.05
2023-02-07T11:50:44.747Z,4.75
2023-02-07T11:53:24.681Z,4.55
2023-02-07T11:55:54.490Z,4.72
2023-02-07T11:58:24.604Z,5.00
2023-02-07T12:00:51.909Z,4.63
2023-02-07T12:03:24.941Z,4.35
2023-02-07T12:05:54.452Z,4.00
2023-02-07T12:08:26.596Z,4.57
2023-02-07T12:10:56.064Z,4.78
2023-02-07T12:13:27.923Z,5.57
2023-02-07T12:16:03.060Z,4.53
2023-02-07T12:18:32.437Z,5.25
2023-02-07T12:21:16.366Z,5.18
2023-02-07T12:23:46.419Z,5.13
2023-02-07T12:26:17.757Z,4.90
2023-02-07T12:28:48.576Z,4.53
2023-02-07T12:31:23.908Z,4.57
2023-02-07T12:33:55.823Z,5.30
2023-02-07T12:36:37.050Z,4.70
2023-02-07T12:41:40.097Z,3.92
2023-02-07T12:44:07.386Z,4.00
2023-02-07T12:46:40.453Z,4.25
2023-02-07T12:49:28.688Z,4.40
2023-02-07T12:52:10.157Z,3.35
2023-02-07T12:54:48.921Z,4.22
2023-02-07T12:57:20.154Z,4.32
2023-02-07T12:59:47.823Z,4.45
2023-02-07T13:02:21.019Z,4.30
2023-02-07T13:04:48.120Z,3.80
2023-02-07T13:07:15.178Z,3.92
2023-02-07T13:09:45.791Z,4.07
2023-02-07T13:12:19.059Z,4.25
2023-02-07T13:15:05.691Z,3.83
2023-02-07T13:17:35.961Z,4.22
2023-02-07T13:20:06.187Z,3.97
2023-02-07T13:22:37.558Z,3.88
2023-02-07T13:25:07.765Z,3.58
2023-02-07T13:27:35.425Z,3.95
2023-02-07T13:30:02.711Z,3.80
2023-02-07T13:32:29.970Z,3.20
2023-02-07T13:34:58.205Z,3.45
2023-02-07T13:37:29.392Z,3.63
2023-02-07T13:39:56.690Z,3.53
2023-02-07T13:42:35.054Z,3.92
2023-02-07T13:45:17.385Z,3.53
2023-02-07T13:47:44.646Z,3.28
2023-02-07T13:50:15.420Z,3.88
2023-02-07T13:52:45.528Z,3.15
2023-02-07T13:55:22.401Z,3.65
2023-02-07T13:58:08.226Z,3.15
2023-02-07T14:00:48.341Z,3.03
2023-02-07T14:03:32.191Z,3.28
2023-02-07T14:06:17.847Z,3.53
2023-02-07T14:08:45.238Z,3.63
2023-02-07T14:11:28.833Z,3.05
2023-02-07T14:14:12.198Z,2.70
2023-02-07T14:16:59.748Z,3.25
2023-02-07T14:19:45.679Z,3.90
2023-02-07T14:22:21.840Z,2.95
2023-02-07T14:25:12.482Z,4.15
2023-02-07T14:27:42.389Z,3.90
2023-02-07T14:30:12.572Z,4.03
2023-02-07T14:32:41.566Z,4.28
2023-02-07T14:35:17.938Z,4.65
2023-02-07T14:37:52.427Z,4.95
2023-02-07T14:40:21.892Z,4.55
2023-02-07T14:42:58.595Z,4.40
2023-02-07T14:45:26.463Z,3.97
2023-02-07T14:47:53.985Z,3.83
2023-02-07T14:50:24.708Z,4.28
2023-02-07T14:52:52.544Z,4.00
2023-02-07T14:55:24.868Z,3.97
2023-02-07T14:58:03.860Z,3.45
2023-02-07T15:00:34.101Z,3.58
2023-02-07T15:03:05.245Z,3.35
2023-02-07T15:05:32.936Z,3.53
2023-02-07T15:08:03.173Z,3.67
2023-02-07T15:10:32.815Z,4.35
2023-02-07T15:13:00.184Z,4.25
2023-02-07T15:15:28.811Z,4.82
2023-02-07T15:17:58.368Z,4.35
2023-02-07T15:20:30.402Z,4.47
2023-02-07T15:22:58.545Z,4.30
2023-02-07T15:25:27.845Z,4.70
2023-02-07T15:28:25.282Z,5.07
2023-02-07T15:30:56.601Z,5.05
2023-02-07T15:33:25.408Z,4.32
2023-02-07T15:35:52.731Z,5.40
2023-02-07T15:38:24.098Z,4.32
2023-02-07T15:40:52.080Z,5.00
2023-02-07T15:43:25.424Z,4.05
2023-02-07T15:46:18.938Z,5.13
2023-02-07T15:51:14.067Z,4.78
2023-02-07T15:53:41.540Z,4.95
2023-02-07T15:56:08.938Z,4.50
2023-02-07T15:58:37.222Z,4.80
2023-02-07T16:01:15.001Z,4.78
2023-02-07T16:03:45.004Z,5.10
2023-02-07T16:06:24.382Z,5.13
2023-02-07T16:08:53.368Z,4.85
2023-02-07T16:13:51.142Z,5.10
2023-02-07T16:16:20.317Z,4.70
2023-02-07T16:18:53.317Z,5.55
2023-02-07T16:21:22.459Z,5.00
2023-02-07T16:23:51.146Z,4.85
2023-02-07T16:26:20.449Z,4.85
2023-02-07T16:28:48.530Z,5.63
2023-02-07T16:31:15.799Z,5.35
2023-02-07T16:33:43.131Z,5.50
2023-02-07T16:36:13.905Z,7.85
2023-02-07T16:38:41.113Z,7.00
2023-02-07T16:41:12.215Z,9.63
2023-02-07T16:43:42.786Z,5.95
2023-02-07T16:46:11.359Z,7.40
2023-02-07T16:48:38.622Z,5.10
2023-02-07T16:51:05.987Z,5.85
2023-02-07T16:53:33.559Z,6.22
2023-02-07T16:56:00.752Z,6.07
2023-02-07T16:58:29.770Z,10.52
2023-02-07T17:03:24.392Z,6.80
2023-02-07T17:05:51.712Z,5.85
2023-02-07T17:08:27.061Z,6.90
2023-02-07T17:10:57.685Z,6.28
2023-02-07T17:13:25.242Z,5.75
2023-02-07T17:15:52.352Z,5.82
2023-02-07T17:18:20.910Z,5.35
2023-02-07T17:20:48.488Z,5.57
2023-02-07T17:23:15.846Z,6.18
2023-02-07T17:25:43.877Z,8.40
2023-02-07T17:28:13.565Z,8.00
2023-02-07T17:30:41.620Z,7.47
2023-02-07T17:33:09.480Z,8.38
2023-02-07T17:35:37.163Z,9.00
2023-02-07T17:38:04.417Z,9.55
2023-02-07T17:40:33.378Z,8.13
2023-02-07T17:43:00.551Z,10.27
2023-02-07T17:45:28.498Z,7.15
2023-02-07T17:47:58.851Z,12.70
2023-02-07T17:50:29.327Z,10.80
2023-02-07T17:52:57.093Z,12.88
2023-02-07T17:55:24.866Z,13.27
2023-02-07T17:57:51.996Z,13.15
2023-02-07T18:00:23.659Z,12.18
2023-02-07T18:02:51.129Z,12.15
2023-02-07T18:05:19.209Z,11.35
2023-02-07T18:07:47.225Z,11.65
2023-02-07T18:10:22.820Z,10.15
2023-02-07T18:12:50.097Z,16.67
2023-02-07T18:15:18.956Z,13.20
2023-02-07T18:17:50.066Z,11.23
2023-02-07T18:20:24.721Z,16.52
2023-02-07T18:22:54.517Z,13.13
2023-02-07T18:25:22.288Z,8.35
2023-02-07T18:27:51.467Z,9.90
2023-02-07T18:32:45.739Z,8.77
2023-02-07T18:35:13.033Z,9.27
2023-02-07T18:37:40.244Z,10.48
2023-02-07T18:40:07.613Z,12.27
2023-02-07T18:42:35.126Z,11.82
2023-02-07T18:45:02.573Z,12.18
2023-02-07T18:47:31.707Z,11.48
2023-02-07T18:49:58.889Z,9.35
2023-02-07T18:52:26.055Z,9.20
2023-02-07T18:54:53.341Z,10.50
2023-02-07T18:57:20.580Z,10.77
2023-02-07T18:59:47.757Z,11.95
2023-02-07T19:02:14.998Z,15.65
2023-02-07T19:04:42.312Z,16.70
2023-02-07T19:07:09.388Z,15.15
2023-02-07T19:09:36.623Z,11.50
2023-02-07T19:12:03.848Z,11.63
2023-02-07T19:14:31.990Z,10.68
2023-02-07T19:16:59.682Z,10.77
2023-02-07T19:19:28.200Z,11.10
2023-02-07T19:21:55.891Z,11.45
2023-02-07T19:24:23.593Z,12.35
2023-02-07T19:26:52.084Z,13.02
2023-02-07T19:29:24.646Z,11.65
2023-02-07T19:31:51.960Z,13.38
2023-02-07T19:34:19.331Z,19.90
2023-02-07T19:36:46.497Z,19.70
2023-02-07T19:39:13.700Z,22.92
2023-02-07T19:41:40.828Z,21.90
2023-02-07T19:44:08.063Z,18.90
2023-02-07T19:46:35.410Z,13.95
2023-02-07T19:49:02.661Z,13.02
2023-02-07T19:51:31.970Z,13.35
2023-02-07T19:53:59.792Z,10.95
2023-02-07T19:56:28.414Z,11.43
2023-02-07T19:58:56.198Z,9.77
2023-02-07T20:01:27.653Z,10.13
2023-02-07T20:03:55.981Z,9.77
2023-02-07T20:06:31.390Z,10.82
2023-02-07T20:11:25.748Z,11.50
2023-02-07T20:13:54.004Z,11.90
2023-02-07T20:16:22.454Z,12.32
2023-02-07T20:18:49.895Z,13.52
2023-02-07T20:21:18.598Z,13.90
2023-02-07T20:23:46.950Z,11.25
2023-02-07T20:26:15.434Z,12.02
2023-02-07T20:28:43.098Z,13.07
2023-02-07T20:31:11.576Z,11.13
2023-02-07T20:33:39.971Z,11.30
2023-02-07T20:36:07.673Z,11.90
2023-02-07T20:38:35.167Z,12.35
2023-02-07T20:41:05.942Z,13.13
2023-02-07T20:43:33.068Z,17.33
2023-02-07T20:46:08.175Z,11.55
2023-02-07T20:48:35.641Z,11.25
2023-02-07T20:51:10.120Z,10.57
2023-02-07T20:53:40.750Z,9.43
2023-02-07T20:56:17.219Z,10.63
2023-02-07T20:58:47.083Z,11.52
2023-02-07T21:01:21.431Z,12.90
2023-02-07T21:03:50.327Z,14.07
2023-02-07T21:06:17.941Z,11.45
2023-02-07T21:08:45.276Z,13.18
2023-02-07T21:11:12.826Z,10.77
2023-02-07T21:13:40.229Z,9.27
2023-02-07T21:16:08.591Z,8.02
2023-02-07T21:18:36.037Z,8.02
2023-02-07T21:21:07.602Z,7.65
2023-02-07T21:23:35.029Z,9.57
2023-02-07T21:26:06.347Z,11.35
2023-02-07T21:28:33.910Z,10.02
2023-02-07T21:31:09.048Z,8.90
2023-02-07T21:33:36.553Z,9.27
2023-02-07T21:36:08.155Z,9.90
2023-02-07T21:38:36.112Z,9.52
2023-02-07T21:41:04.770Z,6.60
2023-02-07T21:43:31.885Z,8.02
2023-02-07T21:46:05.835Z,6.32
2023-02-07T21:48:35.868Z,8.85
2023-02-07T21:51:10.543Z,8.98
2023-02-07T21:53:38.464Z,7.65
2023-02-07T21:56:10.682Z,6.60
2023-02-07T21:58:37.821Z,8.05
2023-02-07T22:01:08.829Z,8.52
2023-02-07T22:03:40.326Z,8.43
2023-02-07T22:06:07.821Z,8.43
2023-02-07T22:08:35.279Z,7.57
2023-02-07T22:11:06.519Z,7.70
2023-02-07T22:13:34.057Z,7.28
2023-02-07T22:16:01.601Z,7.35
2023-02-07T22:18:29.130Z,5.93
2023-02-07T22:20:56.557Z,4.95
2023-02-07T22:23:23.668Z,5.97
2023-02-07T22:25:52.823Z,6.53
2023-02-07T22:28:20.106Z,5.97
2023-02-07T22:30:48.994Z,6.13
2023-02-07T22:33:16.740Z,5.65
2023-02-07T22:35:43.998Z,6.43
2023-02-07T22:38:12.838Z,15.93
2023-02-07T22:40:41.278Z,7.47
2023-02-07T22:43:12.400Z,6.50
2023-02-07T22:45:44.290Z,6.13
2023-02-07T22:48:11.664Z,6.47
2023-02-07T22:50:39.075Z,6.03
2023-02-07T22:53:06.262Z,5.82
2023-02-07T22:55:33.653Z,6.35
2023-02-07T22:58:00.763Z,5.97
2023-02-07T23:00:27.958Z,6.00
2023-02-07T23:02:55.140Z,5.90
2023-02-07T23:05:22.248Z,5.97
2023-02-07T23:07:49.562Z,6.05
2023-02-07T23:10:16.849Z,6.35
2023-02-07T23:12:44.223Z,5.88
2023-02-07T23:15:11.496Z,5.93
2023-02-07T23:17:38.991Z,6.25
2023-02-07T23:20:06.569Z,6.28
2023-02-07T23:22:36.429Z,5.45
2023-02-07T23:25:03.667Z,6.63
2023-02-07T23:27:30.946Z,5.82
2023-02-07T23:29:58.198Z,5.95
2023-02-07T23:32:25.395Z,6.47
2023-02-07T23:34:52.513Z,5.80
2023-02-07T23:37:22.392Z,6.30
2023-02-07T23:39:49.575Z,6.32
2023-02-07T23:42:16.652Z,6.15
2023-02-07T23:44:43.802Z,6.03
2023-02-07T23:47:11.148Z,6.13
2023-02-07T23:49:38.321Z,6.70
2023-02-07T23:52:05.540Z,6.55
2023-02-07T23:54:32.698Z,6.75
2023-02-07T23:56:59.871Z,5.93
2023-02-07T23:59:27.402Z,6.53
